Time;durP1;ratioP1;P1;durP2;ratioP2;P2;SDS_P1;SDS_P2;PMS_P1;PMS_P2;Temp;Humidity;BMP_temperature;BMP_pressure;BME280_temperature;BME280_humidity;BME280_pressure;Samples;Min_cycle;Max_cycle;Signal;HPM_P1;HPM_P2
2022/08/01 00:00:13;;;;;;;3.90;1.88;;;21.80;80.90;;;;;;4975180;28;20390;-78
2022/08/01 00:02:39;;;;;;;1.98;1.77;;;21.80;80.70;;;;;;4978601;28;20030;-80
2022/08/01 00:05:07;;;;;;;3.33;1.70;;;21.80;80.80;;;;;;4974383;28;20497;-79
2022/08/01 00:07:34;;;;;;;2.20;1.83;;;21.70;80.80;;;;;;4978111;28;20073;-79
2022/08/01 00:10:00;;;;;;;3.47;1.90;;;21.70;80.90;;;;;;4973628;28;20386;-79
2022/08/01 00:12:26;;;;;;;4.05;1.67;;;21.70;80.80;;;;;;4976385;28;20034;-79
2022/08/01 00:14:51;;;;;;;3.60;1.80;;;21.60;80.90;;;;;;4975609;28;20030;-76
2022/08/01 00:17:17;;;;;;;2.55;1.90;;;21.50;81.60;;;;;;4977547;28;20022;-79
2022/08/01 00:19:43;;;;;;;1.65;1.55;;;21.50;81.40;;;;;;4979990;28;20026;-78
2022/08/01 00:22:08;;;;;;;2.30;1.73;;;21.50;81.40;;;;;;4980829;28;20509;-78
2022/08/01 00:24:34;;;;;;;3.65;1.48;;;21.50;81.40;;;;;;4980424;28;20035;-78
2022/08/01 00:27:00;;;;;;;2.03;1.50;;;21.40;81.40;;;;;;4979789;28;20030;-78
2022/08/01 00:29:25;;;;;;;2.80;1.73;;;21.40;81.50;;;;;;4980849;28;20557;-78
2022/08/01 00:31:51;;;;;;;3.03;1.80;;;21.30;81.40;;;;;;4983271;28;20069;-78
2022/08/01 00:34:16;;;;;;;1.73;1.52;;;21.30;81.50;;;;;;4979797;28;20045;-78
2022/08/01 00:36:42;;;;;;;2.38;1.52;;;21.30;81.70;;;;;;4981881;28;20045;-78
2022/08/01 00:39:08;;;;;;;4.32;1.38;;;21.30;81.80;;;;;;4981283;28;20390;-78
2022/08/01 00:41:34;;;;;;;2.67;1.80;;;21.20;81.70;;;;;;4979398;28;20081;-77
2022/08/01 00:44:03;;;;;;;2.17;1.80;;;21.20;81.80;;;;;;4981855;28;20498;-78
2022/08/01 00:46:29;;;;;;;2.08;1.50;;;21.20;82.10;;;;;;4982987;28;20735;-78
2022/08/01 00:48:55;;;;;;;4.30;1.85;;;21.20;82.30;;;;;;4978567;28;20031;-78
2022/08/01 00:51:22;;;;;;;2.75;1.77;;;21.10;82.30;;;;;;4979875;28;20027;-78
2022/08/01 00:53:48;;;;;;;1.90;1.50;;;21.10;82.50;;;;;;4976992;28;20501;-78
2022/08/01 00:56:14;;;;;;;3.88;1.90;;;21.10;82.60;;;;;;4982104;28;20440;-78
2022/08/01 00:58:40;;;;;;;3.17;1.80;;;21.10;82.80;;;;;;4980327;28;20034;-78
2022/08/01 01:01:05;;;;;;;2.63;1.55;;;21.00;83.10;;;;;;4978960;28;20022;-78
2022/08/01 01:03:31;;;;;;;2.40;1.40;;;21.00;83.10;;;;;;4979624;28;20133;-78
2022/08/01 01:06:05;;;;;;;7.43;1.80;;;21.00;83.10;;;;;;4980489;28;20041;-78
2022/08/01 01:08:39;;;;;;;2.30;1.55;;;20.90;83.40;;;;;;4982586;28;20026;-79
2022/08/01 01:11:13;;;;;;;2.95;2.05;;;20.90;83.50;;;;;;4981656;28;20101;-78
2022/08/01 01:13:49;;;;;;;1.85;1.50;;;20.80;83.80;;;;;;4982435;28;20056;-78
2022/08/01 01:16:19;;;;;;;2.08;1.48;;;20.80;84.00;;;;;;5015105;22;20050;-82
2022/08/01 01:18:52;;;;;;;2.42;1.60;;;20.70;84.10;;;;;;4979763;28;20898;-83
2022/08/01 01:21:18;;;;;;;;;;;20.70;84.40;;;;;;4984833;28;20396;-82
2022/08/01 01:23:52;;;;;;;3.67;1.90;;;20.70;84.50;;;;;;5002339;28;19906;-82
2022/08/01 01:26:39;;;;;;;2.22;1.60;;;20.70;84.60;;;;;;4982388;28;20034;-82
2022/08/01 01:29:19;;;;;;;2.88;1.70;;;20.70;84.70;;;;;;4980019;28;20027;-82
2022/08/01 01:31:55;;;;;;;2.50;1.70;;;20.60;84.70;;;;;;4980804;28;20117;-82
2022/08/01 01:34:22;;;;;;;3.47;1.85;;;20.60;84.90;;;;;;4983819;28;20054;-82
2022/08/01 01:36:51;;;;;;;2.60;1.83;;;20.60;85.20;;;;;;4979224;28;20042;-83
2022/08/01 01:39:18;;;;;;;4.00;2.13;;;20.60;85.40;;;;;;4979089;28;20091;-83
2022/08/01 01:41:46;;;;;;;4.90;1.75;;;20.50;85.60;;;;;;4981248;28;20085;-82
2022/08/01 01:44:17;;;;;;;3.65;1.40;;;20.50;85.60;;;;;;4982549;28;20478;-81
2022/08/01 01:46:44;;;;;;;3.78;1.70;;;20.50;85.60;;;;;;4979744;28;20498;-81
2022/08/01 01:49:11;;;;;;;1.90;1.63;;;20.40;85.50;;;;;;4981153;28;20034;-81
2022/08/01 01:51:42;;;;;;;3.20;1.83;;;20.40;85.70;;;;;;4981847;28;20029;-81
2022/08/01 01:54:09;;;;;;;3.00;1.27;;;20.40;85.80;;;;;;4980997;28;20030;-81
2022/08/01 01:56:48;;;;;;;3.08;1.60;;;20.40;86.00;;;;;;4978648;28;20114;-81
2022/08/01 01:59:24;;;;;;;3.88;1.95;;;20.40;86.00;;;;;;4978793;28;20600;-82
2022/08/01 02:01:52;;;;;;;3.33;1.90;;;20.40;86.00;;;;;;4977798;28;20030;-81
2022/08/01 02:04:19;;;;;;;5.15;1.70;;;20.40;86.00;;;;;;4979795;28;20022;-81
2022/08/01 02:06:46;;;;;;;4.38;1.70;;;20.30;86.10;;;;;;4981235;28;20662;-81
2022/08/01 02:09:17;;;;;;;10.10;1.52;;;20.30;86.40;;;;;;4982204;28;20054;-80
2022/08/01 02:11:44;;;;;;;3.13;1.70;;;20.20;86.70;;;;;;4977743;28;20026;-81
2022/08/01 02:14:12;;;;;;;3.00;1.50;;;20.20;86.90;;;;;;4982451;28;20119;-81
2022/08/01 02:16:41;;;;;;;3.22;1.92;;;20.20;87.00;;;;;;4983399;28;20069;-81
2022/08/01 02:19:07;;;;;;;4.53;2.10;;;20.20;87.10;;;;;;4986417;28;20040;-81
2022/08/01 02:21:42;;;;;;;2.47;1.63;;;20.10;87.10;;;;;;4982102;28;20039;-81
2022/08/01 02:24:18;;;;;;;2.60;1.65;;;20.10;87.20;;;;;;4997036;28;20029;-81
2022/08/01 02:26:50;;;;;;;4.13;1.67;;;20.10;87.40;;;;;;4976392;28;20093;-81
2022/08/01 02:29:23;;;;;;;2.53;1.77;;;20.00;87.50;;;;;;4992054;28;20026;-81
2022/08/01 02:31:54;;;;;;;2.53;1.50;;;20.00;87.60;;;;;;4981822;28;20093;-81
2022/08/01 02:34:20;;;;;;;4.53;1.95;;;20.00;87.70;;;;;;4986944;28;20061;-82
2022/08/01 02:36:47;;;;;;;1.95;1.67;;;19.90;87.80;;;;;;4990043;28;20034;-81
2022/08/01 02:39:16;;;;;;;4.07;1.90;;;19.90;87.80;;;;;;4982888;28;20026;-81
2022/08/01 02:41:45;;;;;;;3.78;1.90;;;19.90;88.00;;;;;;4992663;28;20116;-82
2022/08/01 02:44:14;;;;;;;3.88;1.77;;;19.90;88.10;;;;;;4998207;28;20056;-83
2022/08/01 02:46:48;;;;;;;3.22;1.80;;;19.80;88.20;;;;;;4982621;28;20117;-83
2022/08/01 02:49:14;;;;;;;2.10;1.40;;;19.80;88.50;;;;;;4984031;28;20053;-82
2022/08/01 02:51:41;;;;;;;2.75;1.67;;;19.80;88.40;;;;;;4980901;28;20021;-81
2022/08/01 02:54:08;;;;;;;3.22;1.90;;;19.80;88.70;;;;;;4981964;28;20517;-82
2022/08/01 02:56:35;;;;;;;5.13;1.80;;;19.80;88.90;;;;;;4980081;28;20031;-80
2022/08/01 02:59:24;;;;;;;3.55;1.90;;;19.80;89.00;;;;;;4984047;28;20057;-81
2022/08/01 03:01:54;;;;;;;4.90;2.05;;;19.70;89.20;;;;;;4980208;28;20112;-81
2022/08/01 03:04:21;;;;;;;3.40;1.80;;;19.70;89.50;;;;;;4978554;28;20038;-81
2022/08/01 03:06:48;;;;;;;3.78;1.63;;;19.70;89.50;;;;;;4976360;28;20035;-82
2022/08/01 03:09:14;;;;;;;4.28;2.08;;;19.70;89.50;;;;;;4981053;28;20022;-82
2022/08/01 03:11:42;;;;;;;3.10;1.88;;;19.70;89.60;;;;;;4994419;28;20069;-82
2022/08/01 03:14:11;;;;;;;3.17;1.67;;;19.70;89.60;;;;;;4982653;28;20038;-82
2022/08/01 03:16:39;;;;;;;2.92;1.95;;;19.70;89.80;;;;;;4951739;28;1121495;-83
2022/08/01 03:19:06;;;;;;;2.42;1.80;;;19.60;90.00;;;;;;4984416;28;20443;-83
2022/08/01 03:21:34;;;;;;;3.45;1.80;;;19.60;90.10;;;;;;4979794;28;20050;-82
2022/08/01 03:24:02;;;;;;;4.82;2.40;;;19.60;90.10;;;;;;4987123;28;20030;-82
2022/08/01 03:26:30;;;;;;;5.10;2.20;;;19.60;90.20;;;;;;4987293;28;20478;-83
2022/08/01 03:29:01;;;;;;;2.67;2.20;;;19.60;90.20;;;;;;4991435;28;20038;-82
2022/08/01 03:31:28;;;;;;;3.10;2.38;;;19.50;90.20;;;;;;4986391;28;20038;-82
2022/08/01 03:33:54;;;;;;;5.38;2.78;;;19.50;90.20;;;;;;4989712;28;20367;-82
2022/08/01 03:36:26;;;;;;;2.55;2.00;;;19.50;90.30;;;;;;4991748;28;20038;-82
2022/08/01 03:38:55;;;;;;;3.75;2.30;;;19.50;90.40;;;;;;4985542;28;20578;-83
2022/08/01 03:41:25;;;;;;;3.03;2.08;;;19.50;90.40;;;;;;4987680;28;20101;-82
2022/08/01 03:44:05;;;;;;;3.72;2.00;;;19.50;90.50;;;;;;4986645;28;20129;-83
2022/08/01 03:46:40;;;;;;;4.05;2.25;;;19.40;90.50;;;;;;4986555;28;20023;-83
2022/08/01 03:49:16;;;;;;;6.57;2.20;;;19.40;90.60;;;;;;4989193;28;20022;-83
2022/08/01 03:51:45;;;;;;;3.17;2.10;;;19.40;90.60;;;;;;4987036;28;20034;-83
2022/08/01 03:54:11;;;;;;;3.78;2.78;;;19.40;90.70;;;;;;4988330;28;20513;-83
2022/08/01 03:56:38;;;;;;;5.25;3.00;;;19.30;90.80;;;;;;4989608;28;20486;-83
2022/08/01 03:59:05;;;;;;;4.80;2.10;;;19.30;90.80;;;;;;5001456;28;20030;-83
2022/08/01 04:01:33;;;;;;;5.65;2.47;;;19.30;90.80;;;;;;4993923;28;20031;-83
2022/08/01 04:04:00;;;;;;;4.22;2.40;;;19.30;90.90;;;;;;4987156;28;20068;-83
2022/08/01 04:06:25;;;;;;;3.72;2.20;;;19.30;91.00;;;;;;4985808;28;20027;-83
2022/08/01 04:08:57;;;;;;;6.10;2.92;;;19.30;91.20;;;;;;4990955;28;20049;-83
2022/08/01 04:11:27;;;;;;;5.03;2.58;;;19.30;91.20;;;;;;4988661;28;20042;-83
2022/08/01 04:13:53;;;;;;;5.10;2.30;;;19.30;91.30;;;;;;4989753;28;20034;-83
2022/08/01 04:16:20;;;;;;;10.07;2.70;;;19.20;91.30;;;;;;4987024;28;20473;-82
2022/08/01 04:18:47;;;;;;;5.13;2.60;;;19.20;91.40;;;;;;4995590;28;20045;-83
2022/08/01 04:21:13;;;;;;;4.63;2.88;;;19.20;91.50;;;;;;4987585;28;20026;-83
2022/08/01 04:23:43;;;;;;;5.00;2.75;;;19.20;91.60;;;;;;4992088;28;20383;-83
2022/08/01 04:26:10;;;;;;;3.78;2.60;;;19.20;91.70;;;;;;4987523;28;20026;-83
2022/08/01 04:28:37;;;;;;;4.53;2.25;;;19.20;91.80;;;;;;4987428;28;20102;-83
2022/08/01 04:31:06;;;;;;;5.93;2.65;;;19.10;92.10;;;;;;4985591;28;20026;-83
2022/08/01 04:33:36;;;;;;;4.45;2.45;;;19.10;91.90;;;;;;4988935;28;20029;-84
2022/08/01 04:36:04;;;;;;;4.05;2.15;;;19.10;92.10;;;;;;4986428;28;20092;-82
2022/08/01 04:38:33;;;;;;;4.50;2.55;;;19.10;92.10;;;;;;4988300;28;20030;-82
2022/08/01 04:40:59;;;;;;;5.50;3.08;;;19.10;92.30;;;;;;4989278;28;20030;-82
2022/08/01 04:43:24;;;;;;;9.70;2.83;;;19.00;92.40;;;;;;4987958;28;20034;-82
2022/08/01 04:45:51;;;;;;;3.92;2.65;;;19.10;92.50;;;;;;4988092;28;20049;-82
2022/08/01 04:48:20;;;;;;;3.63;2.28;;;19.10;92.50;;;;;;4989683;28;20054;-82
2022/08/01 04:50:46;;;;;;;3.95;2.40;;;19.10;92.50;;;;;;4984839;28;20936;-82
2022/08/01 04:53:13;;;;;;;3.53;2.67;;;19.10;92.50;;;;;;4987983;28;20037;-83
2022/08/01 04:55:39;;;;;;;4.72;2.60;;;19.10;92.50;;;;;;4983416;28;20030;-84
2022/08/01 04:58:05;;;;;;;3.83;2.50;;;19.10;92.60;;;;;;4985117;28;20068;-82
2022/08/01 05:00:30;;;;;;;5.00;2.67;;;19.10;92.60;;;;;;4984719;28;20030;-78
2022/08/01 05:02:56;;;;;;;5.28;2.97;;;19.20;92.70;;;;;;4982607;28;20058;-78
2022/08/01 05:05:22;;;;;;;6.38;2.75;;;19.20;92.80;;;;;;4986059;28;20717;-78
2022/08/01 05:07:48;;;;;;;3.90;2.80;;;19.20;92.80;;;;;;4984976;28;20091;-78
2022/08/01 05:10:13;;;;;;;5.70;2.72;;;19.20;93.00;;;;;;4980063;28;20062;-78
2022/08/01 05:12:39;;;;;;;4.47;2.65;;;19.30;93.10;;;;;;4989812;28;20485;-78
2022/08/01 05:15:06;;;;;;;3.95;2.45;;;19.40;92.90;;;;;;4982756;28;20018;-78
2022/08/01 05:17:32;;;;;;;2.97;2.38;;;19.50;92.90;;;;;;4985775;28;20038;-78
2022/08/01 05:19:57;;;;;;;7.70;3.05;;;19.70;92.70;;;;;;4982098;28;20035;-78
2022/08/01 05:22:25;;;;;;;4.68;2.97;;;19.90;92.50;;;;;;4987170;28;20109;-77
2022/08/01 05:24:52;;;;;;;4.35;2.90;;;20.10;92.20;;;;;;4985654;28;20030;-77
2022/08/01 05:27:18;;;;;;;3.20;2.38;;;20.30;91.90;;;;;;4988647;28;20474;-84
2022/08/01 05:29:43;;;;;;;4.60;2.30;;;20.60;91.60;;;;;;4989785;28;20030;-84
2022/08/01 05:32:09;;;;;;;6.13;2.63;;;20.80;91.20;;;;;;4984372;28;20027;-83
2022/08/01 05:34:35;;;;;;;3.67;2.38;;;20.90;90.90;;;;;;4983307;28;20035;-85
2022/08/01 05:37:01;;;;;;;6.13;2.80;;;21.00;90.60;;;;;;4989293;28;20042;-86
2022/08/01 05:39:26;;;;;;;3.67;2.67;;;21.00;90.30;;;;;;4987309;28;20035;-83
2022/08/01 05:41:52;;;;;;;4.82;3.38;;;21.10;90.20;;;;;;4983315;28;20027;-85
2022/08/01 05:44:18;;;;;;;2.95;2.25;;;21.10;90.10;;;;;;4982579;28;20101;-83
2022/08/01 05:46:43;;;;;;;4.82;2.70;;;21.10;90.10;;;;;;4983704;28;20134;-81
2022/08/01 05:49:09;;;;;;;5.88;2.92;;;21.10;90.10;;;;;;4986113;28;20113;-83
2022/08/01 05:51:34;;;;;;;5.30;2.90;;;21.10;90.20;;;;;;4987134;28;20038;-84
2022/08/01 05:54:00;;;;;;;4.32;2.80;;;21.10;90.20;;;;;;4987376;28;20069;-84
2022/08/01 05:56:26;;;;;;;4.30;2.80;;;21.10;90.30;;;;;;4984480;28;20029;-84
2022/08/01 05:58:52;;;;;;;4.57;2.85;;;21.10;90.30;;;;;;5003544;28;20037;-84
2022/08/01 06:01:18;;;;;;;5.50;2.70;;;21.10;90.40;;;;;;4986757;28;20034;-85
2022/08/01 06:03:44;;;;;;;4.68;2.80;;;21.10;90.50;;;;;;4991425;28;20506;-85
2022/08/01 06:06:09;;;;;;;5.28;2.78;;;21.10;90.70;;;;;;4990109;28;20043;-84
2022/08/01 06:08:35;;;;;;;4.03;2.55;;;21.10;90.70;;;;;;4986386;28;20037;-81
2022/08/01 06:11:01;;;;;;;3.70;2.75;;;21.20;90.50;;;;;;4990544;28;20030;-82
2022/08/01 06:13:27;;;;;;;3.92;3.10;;;21.20;90.40;;;;;;4988484;28;20054;-82
2022/08/01 06:15:53;;;;;;;10.30;3.28;;;21.30;90.30;;;;;;4988421;28;20117;-82
2022/08/01 06:18:20;;;;;;;6.75;3.03;;;21.30;90.40;;;;;;4990423;28;20026;-82
2022/08/01 06:20:46;;;;;;;4.30;2.90;;;21.40;90.60;;;;;;4988114;28;20117;-81
2022/08/01 06:23:13;;;;;;;5.80;3.08;;;21.40;90.60;;;;;;4990651;28;20057;-81
2022/08/01 06:25:38;;;;;;;6.43;3.15;;;21.40;90.60;;;;;;4992780;28;20026;-81
2022/08/01 06:28:04;;;;;;;6.47;3.50;;;21.50;90.70;;;;;;4988381;28;20039;-81
2022/08/01 06:30:30;;;;;;;6.60;3.10;;;21.50;90.90;;;;;;4990962;28;20500;-82
2022/08/01 06:32:58;;;;;;;4.78;3.00;;;21.50;91.00;;;;;;4988844;28;20036;-81
2022/08/01 06:35:24;;;;;;;3.65;2.97;;;21.50;91.00;;;;;;4987056;28;20054;-81
2022/08/01 06:37:49;;;;;;;3.28;2.90;;;21.60;91.00;;;;;;4987190;28;20634;-81
2022/08/01 06:40:15;;;;;;;5.38;3.03;;;21.60;91.00;;;;;;4989441;28;20101;-82
2022/08/01 06:42:41;;;;;;;5.47;3.10;;;21.70;90.90;;;;;;4990978;28;20031;-82
2022/08/01 06:45:10;;;;;;;5.30;3.20;;;21.80;90.80;;;;;;4987521;28;20489;-82
2022/08/01 06:47:38;;;;;;;3.25;2.95;;;21.80;90.80;;;;;;4992100;28;20034;-82
2022/08/01 06:50:05;;;;;;;5.85;2.72;;;21.90;90.70;;;;;;4986694;28;20029;-81
2022/08/01 06:52:31;;;;;;;4.97;2.92;;;22.00;90.70;;;;;;4990237;28;20037;-82
2022/08/01 06:54:56;;;;;;;4.07;2.70;;;22.00;90.60;;;;;;4990455;28;20034;-81
2022/08/01 06:57:22;;;;;;;3.88;2.72;;;22.00;90.60;;;;;;4988503;28;20045;-81
2022/08/01 06:59:48;;;;;;;4.25;2.60;;;22.20;90.70;;;;;;4985277;28;20084;-80
2022/08/01 07:02:14;;;;;;;5.20;2.65;;;22.20;90.70;;;;;;4985839;28;20023;-81
2022/08/01 07:04:40;;;;;;;4.07;3.17;;;22.30;90.60;;;;;;4990187;28;20026;-81
2022/08/01 07:07:05;;;;;;;4.10;2.55;;;22.40;90.60;;;;;;4989849;28;20041;-82
2022/08/01 07:09:31;;;;;;;4.10;2.70;;;22.40;90.40;;;;;;4988076;28;20060;-81
2022/08/01 07:11:56;;;;;;;3.90;2.63;;;22.50;90.40;;;;;;4988160;28;20027;-82
2022/08/01 07:14:23;;;;;;;3.15;2.40;;;22.50;90.30;;;;;;4988343;28;21024;-82
2022/08/01 07:16:48;;;;;;;4.63;2.90;;;22.50;90.30;;;;;;5000580;22;20057;-77
2022/08/01 07:19:14;;;;;;;3.70;2.80;;;22.60;90.30;;;;;;4994711;28;20105;-78
2022/08/01 07:21:40;;;;;;;4.53;3.10;;;22.70;90.10;;;;;;4997403;28;20470;-78
2022/08/01 07:24:07;;;;;;;4.65;2.63;;;22.80;90.00;;;;;;4998036;28;20065;-76
2022/08/01 07:26:33;;;;;;;4.47;2.90;;;22.80;89.80;;;;;;4994205;28;20117;-77
2022/08/01 07:28:59;;;;;;;5.07;2.60;;;22.90;89.70;;;;;;4995951;28;20050;-78
2022/08/01 07:31:25;;;;;;;5.45;3.97;;;22.90;89.50;;;;;;5013349;22;20109;-79
2022/08/01 07:33:51;;;;;;;5.43;3.33;;;22.90;89.40;;;;;;5027793;28;20105;-78
2022/08/01 07:36:17;;;;;;;3.72;3.38;;;23.00;89.40;;;;;;5018617;28;20034;-79
2022/08/01 07:38:43;;;;;;;3.38;2.60;;;23.10;89.30;;;;;;5009830;28;20386;-78
2022/08/01 07:41:08;;;;;;;2.92;2.30;;;23.10;88.90;;;;;;5003852;28;20041;-76
2022/08/01 07:43:35;;;;;;;4.18;2.22;;;23.10;88.90;;;;;;4987706;28;20058;-77
2022/08/01 07:46:02;;;;;;;4.97;2.65;;;23.20;89.00;;;;;;4998120;28;20089;-78
2022/08/01 07:48:28;;;;;;;3.33;2.65;;;23.20;88.70;;;;;;4988119;28;20022;-78
2022/08/01 07:50:53;;;;;;;3.35;2.13;;;23.30;88.90;;;;;;4987026;28;20022;-76
2022/08/01 07:53:19;;;;;;;2.95;2.35;;;23.40;88.90;;;;;;4990170;28;20045;-77
2022/08/01 07:55:45;;;;;;;6.57;2.25;;;23.60;88.70;;;;;;4980608;28;20031;-74
2022/08/01 07:58:10;;;;;;;4.28;2.50;;;23.60;87.70;;;;;;4987241;28;20318;-74
2022/08/01 08:00:36;;;;;;;3.40;2.10;;;23.70;87.70;;;;;;4987843;28;20022;-74
2022/08/01 08:03:02;;;;;;;5.85;2.58;;;23.80;88.20;;;;;;4985537;28;20026;-75
2022/08/01 08:05:27;;;;;;;5.68;2.50;;;23.90;87.20;;;;;;4987078;28;20034;-75
2022/08/01 08:07:53;;;;;;;5.82;2.67;;;23.90;86.80;;;;;;4991811;28;20487;-75
2022/08/01 08:10:19;;;;;;;2.97;2.15;;;24.00;86.40;;;;;;4995205;28;20026;-75
2022/08/01 08:12:46;;;;;;;3.65;2.20;;;24.00;85.70;;;;;;4997188;28;20022;-75
2022/08/01 08:15:12;;;;;;;5.10;2.20;;;24.10;85.60;;;;;;4985754;28;20464;-75
2022/08/01 08:17:39;;;;;;;2.70;2.35;;;24.10;85.80;;;;;;4987171;28;20019;-75
2022/08/01 08:20:08;;;;;;;4.38;2.13;;;24.20;85.70;;;;;;5003617;28;20419;-77
2022/08/01 08:22:34;;;;;;;2.70;2.10;;;24.30;85.40;;;;;;4990123;28;20069;-77
2022/08/01 08:25:00;;;;;;;3.45;2.40;;;24.40;84.30;;;;;;4991386;28;20108;-80
2022/08/01 08:27:26;;;;;;;3.80;2.40;;;24.40;83.90;;;;;;5000948;28;20034;-80
2022/08/01 08:29:51;;;;;;;3.97;2.50;;;24.50;83.80;;;;;;4991895;28;20472;-80
2022/08/01 08:32:17;;;;;;;3.50;2.85;;;24.60;83.40;;;;;;4994461;28;20022;-80
2022/08/01 08:34:43;;;;;;;2.65;2.45;;;24.60;83.40;;;;;;4994787;28;20125;-78
2022/08/01 08:37:09;;;;;;;4.97;2.80;;;24.80;83.20;;;;;;4997150;28;20081;-79
2022/08/01 08:39:34;;;;;;;3.30;2.45;;;24.80;82.90;;;;;;4994296;28;20033;-79
2022/08/01 08:42:01;;;;;;;2.72;2.22;;;24.90;82.70;;;;;;5001374;28;20062;-79
2022/08/01 08:44:27;;;;;;;2.63;2.22;;;24.90;82.50;;;;;;4995488;28;20025;-79
2022/08/01 08:46:55;;;;;;;4.65;2.25;;;24.90;82.20;;;;;;5005981;28;20114;-79
2022/08/01 08:49:27;;;;;;;2.53;1.98;;;24.90;82.20;;;;;;4993012;28;20022;-79
2022/08/01 08:51:57;;;;;;;3.15;2.65;;;24.90;81.70;;;;;;4995379;28;20053;-79
2022/08/01 08:54:24;;;;;;;4.00;2.15;;;24.90;81.70;;;;;;4992525;28;20034;-80
2022/08/01 08:56:52;;;;;;;4.85;2.80;;;24.90;81.70;;;;;;4993464;28;20577;-80
2022/08/01 08:59:18;;;;;;;5.63;2.90;;;24.90;82.00;;;;;;5000675;28;20034;-79
2022/08/01 09:01:44;;;;;;;3.50;2.50;;;25.00;82.00;;;;;;4985972;28;20542;-80
2022/08/01 09:04:10;;;;;;;6.40;2.47;;;25.00;81.70;;;;;;4989510;28;20034;-80
2022/08/01 09:06:36;;;;;;;2.22;2.03;;;25.00;81.40;;;;;;4990560;28;20034;-79
2022/08/01 09:09:03;;;;;;;4.18;1.92;;;25.10;81.50;;;;;;4993577;28;20034;-81
2022/08/01 09:11:29;;;;;;;2.67;2.15;;;25.20;81.50;;;;;;4993958;28;20418;-80
2022/08/01 09:14:23;;;;;;;4.30;2.22;;;25.30;81.50;;;;;;4994345;28;20037;-79
2022/08/01 09:17:02;;;;;;;4.20;2.17;;;25.40;80.20;;;;;;4995773;28;20423;-80
2022/08/01 09:19:35;;;;;;;4.85;2.25;;;25.50;79.80;;;;;;4990259;28;20129;-80
2022/08/01 09:22:03;;;;;;;;;;;25.60;79.90;;;;;;4991177;28;20027;-80
2022/08/01 09:24:30;;;;;;;4.75;2.47;;;25.80;79.80;;;;;;4993667;28;19909;-81
2022/08/01 09:26:56;;;;;;;4.60;2.88;;;25.90;79.60;;;;;;5001183;28;20387;-80
2022/08/01 09:29:27;;;;;;;2.63;2.25;;;26.10;79.40;;;;;;4993183;28;20029;-80
2022/08/01 09:31:53;;;;;;;3.40;2.42;;;26.20;78.60;;;;;;4997475;28;20030;-80
2022/08/01 09:34:30;;;;;;;5.03;3.03;;;26.40;78.20;;;;;;4993016;28;20027;-81
2022/08/01 09:36:58;;;;;;;3.97;2.88;;;26.50;77.20;;;;;;4993007;28;20026;-80
2022/08/01 09:39:27;;;;;;;3.42;2.40;;;26.60;77.30;;;;;;4988534;28;20035;-80
2022/08/01 09:41:58;;;;;;;2.90;2.35;;;26.70;76.90;;;;;;4993130;28;20057;-80
2022/08/01 09:44:44;;;;;;;3.42;2.50;;;26.60;76.50;;;;;;4993638;28;20376;-81
2022/08/01 09:47:11;;;;;;;3.53;2.42;;;26.70;76.60;;;;;;4995378;28;20152;-81
2022/08/01 09:49:38;;;;;;;3.83;2.13;;;26.80;76.80;;;;;;4997621;28;20030;-80
2022/08/01 09:52:19;;;;;;;2.67;2.20;;;26.70;76.10;;;;;;4998444;28;20037;-81
2022/08/01 09:55:11;;;;;;;3.08;2.05;;;26.80;76.30;;;;;;5003770;28;20117;-80
2022/08/01 09:57:37;;;;;;;3.50;2.90;;;26.80;76.00;;;;;;4994949;28;20045;-81
2022/08/01 10:00:22;;;;;;;4.70;2.30;;;26.90;75.80;;;;;;4998362;28;20023;-80
2022/08/01 10:02:47;;;;;;;5.43;3.30;;;26.80;75.60;;;;;;4992438;28;20105;-80
2022/08/01 10:05:13;;;;;;;4.22;2.75;;;26.90;75.30;;;;;;4999733;28;20052;-80
2022/08/01 10:08:03;;;;;;;3.25;2.47;;;26.90;75.10;;;;;;5000330;28;20166;-80
2022/08/01 10:10:30;;;;;;;3.80;2.50;;;26.90;74.70;;;;;;5004489;28;20018;-80
2022/08/01 10:12:58;;;;;;;4.78;2.60;;;27.00;74.50;;;;;;4996878;28;20448;-80
2022/08/01 10:15:25;;;;;;;3.35;2.38;;;27.10;74.10;;;;;;5005386;28;20018;-80
2022/08/01 10:17:56;;;;;;;6.30;2.55;;;27.10;73.80;;;;;;5012093;28;20029;-80
2022/08/01 10:20:31;;;;;;;5.30;2.78;;;27.10;73.40;;;;;;4984775;28;20034;-80
2022/08/01 10:23:03;;;;;;;3.60;2.78;;;27.10;73.90;;;;;;4998237;28;20076;-81
2022/08/01 10:25:33;;;;;;;3.58;2.30;;;27.20;74.10;;;;;;5006752;28;20022;-80
2022/08/01 10:28:01;;;;;;;2.92;1.83;;;27.30;73.10;;;;;;5010628;28;20022;-81
2022/08/01 10:30:28;;;;;;;6.18;3.50;;;27.40;72.50;;;;;;5000210;28;20109;-80
2022/08/01 10:32:55;;;;;;;2.60;2.40;;;27.50;72.80;;;;;;4994450;28;20027;-80
2022/08/01 10:35:21;;;;;;;3.63;2.30;;;27.60;73.00;;;;;;5006317;28;20467;-80
2022/08/01 10:37:51;;;;;;;5.82;2.45;;;27.70;73.00;;;;;;5006055;28;20088;-81
2022/08/01 10:40:16;;;;;;;3.15;2.08;;;27.70;72.50;;;;;;5005086;28;20488;-80
2022/08/01 10:42:44;;;;;;;2.97;2.50;;;27.70;72.80;;;;;;5001469;28;20065;-80
2022/08/01 10:45:13;;;;;;;5.18;2.17;;;27.70;72.90;;;;;;4999735;28;20054;-79
2022/08/01 10:47:59;;;;;;;3.95;2.75;;;27.60;72.60;;;;;;5018464;28;20388;-80
2022/08/01 10:50:31;;;;;;;2.75;2.10;;;27.50;72.70;;;;;;5008586;28;20023;-79
2022/08/01 10:53:09;;;;;;;3.97;2.42;;;27.40;73.20;;;;;;4999209;28;20094;-80
2022/08/01 10:55:51;;;;;;;3.67;2.10;;;27.30;73.60;;;;;;5000015;28;20137;-79
2022/08/01 10:58:25;;;;;;;5.53;2.40;;;27.10;73.90;;;;;;5005085;28;20018;-79
2022/08/01 11:01:28;;;;;;;3.03;2.45;;;26.90;74.30;;;;;;4998361;28;20022;-79
2022/08/01 11:04:01;;;;;;;2.47;2.28;;;26.90;74.20;;;;;;4999331;28;20023;-80
2022/08/01 11:06:33;;;;;;;4.13;2.47;;;26.90;74.60;;;;;;5001617;28;20033;-80
2022/08/01 11:09:16;;;;;;;2.95;2.22;;;26.90;74.80;;;;;;4995060;28;20022;-81
2022/08/01 11:12:08;;;;;;;4.82;2.42;;;26.90;74.50;;;;;;4999215;28;20093;-80
2022/08/01 11:14:54;;;;;;;4.22;2.28;;;26.90;74.10;;;;;;5000699;28;20031;-80
2022/08/01 11:17:47;;;;;;;3.60;2.35;;;27.00;73.90;;;;;;4999129;28;20122;-81
2022/08/01 11:20:32;;;;;;;3.67;2.40;;;27.00;73.50;;;;;;5008204;28;20026;-80
2022/08/01 11:23:01;;;;;;;3.80;2.78;;;27.10;73.70;;;;;;5004471;28;20030;-80
2022/08/01 11:25:48;;;;;;;5.70;2.25;;;27.10;74.00;;;;;;5000825;28;20543;-79
2022/08/01 11:28:13;;;;;;;5.78;2.45;;;27.10;73.90;;;;;;5017675;28;20050;-79
2022/08/01 11:30:54;;;;;;;7.75;2.90;;;27.20;73.80;;;;;;5019289;28;20505;-79
2022/08/01 11:33:42;;;;;;;2.97;2.33;;;27.20;74.10;;;;;;5012668;28;20026;-79
2022/08/01 11:36:17;;;;;;;4.75;2.35;;;27.10;73.70;;;;;;5013221;28;20030;-79
2022/08/01 11:38:58;;;;;;;3.38;2.40;;;27.20;73.80;;;;;;4999389;28;20026;-80
2022/08/01 11:41:26;;;;;;;2.88;2.17;;;27.10;73.60;;;;;;5010563;28;20037;-81
2022/08/01 11:44:05;;;;;;;5.00;1.98;;;27.10;73.60;;;;;;4995059;28;20034;-81
2022/08/01 11:47:09;;;;;;;4.57;2.22;;;27.20;73.70;;;;;;5000581;28;20026;-82
2022/08/01 11:49:40;;;;;;;3.35;2.47;;;27.20;73.50;;;;;;5007642;28;20458;-81
2022/08/01 11:52:09;;;;;;;3.55;2.30;;;27.20;73.20;;;;;;4991389;28;20027;-81
2022/08/01 11:54:39;;;;;;;4.78;2.08;;;27.20;72.90;;;;;;5001399;28;20391;-82
2022/08/01 11:57:10;;;;;;;2.67;1.95;;;27.30;73.30;;;;;;5008370;28;20045;-81
2022/08/01 11:59:48;;;;;;;3.03;2.30;;;27.20;73.40;;;;;;5005627;28;20033;-81
2022/08/01 12:02:24;;;;;;;3.78;2.55;;;27.20;73.70;;;;;;5000355;28;20030;-80
2022/08/01 12:05:00;;;;;;;3.35;2.20;;;27.10;73.10;;;;;;5012773;28;20090;-80
2022/08/01 12:07:28;;;;;;;3.30;2.70;;;27.00;73.60;;;;;;4998725;28;20030;-80
2022/08/01 12:10:15;;;;;;;4.10;3.03;;;26.80;74.10;;;;;;4997062;28;20034;-81
2022/08/01 12:12:51;;;;;;;5.03;2.78;;;26.80;73.90;;;;;;5003396;28;20040;-81
2022/08/01 12:15:18;;;;;;;3.35;2.60;;;26.70;74.40;;;;;;4996226;28;20014;-81
2022/08/01 12:17:48;;;;;;;3.55;2.38;;;26.70;74.30;;;;;;4997632;28;20062;-81
2022/08/01 12:20:16;;;;;;;4.40;3.00;;;26.60;74.00;;;;;;4996692;28;20081;-80
2022/08/01 12:22:43;;;;;;;5.25;3.25;;;26.50;74.20;;;;;;5000173;28;20109;-80
2022/08/01 12:25:16;;;;;;;3.17;2.88;;;26.50;74.20;;;;;;4998843;28;20030;-81
2022/08/01 12:27:44;;;;;;;4.68;2.90;;;26.40;74.70;;;;;;4995389;28;20065;-82
2022/08/01 12:30:18;;;;;;;7.03;3.22;;;26.40;75.30;;;;;;4998755;28;20019;-82
2022/08/01 12:32:46;;;;;;;5.38;3.40;;;26.40;76.40;;;;;;5004941;28;20104;-81
2022/08/01 12:35:14;;;;;;;5.72;3.60;;;26.30;76.60;;;;;;4999999;28;20595;-80
2022/08/01 12:37:45;;;;;;;3.90;3.42;;;26.30;76.40;;;;;;5001743;28;20139;-82
2022/08/01 12:40:31;;;;;;;4.75;3.42;;;26.40;76.10;;;;;;4999183;28;20026;-81
2022/08/01 12:43:07;;;;;;;4.78;3.38;;;26.40;76.30;;;;;;5014976;28;20029;-82
2022/08/01 12:45:44;;;;;;;3.80;3.03;;;26.40;76.50;;;;;;4999819;28;20037;-81
2022/08/01 12:48:15;;;;;;;5.45;3.25;;;26.40;76.90;;;;;;5017905;28;20097;-81
2022/08/01 12:50:49;;;;;;;3.33;3.03;;;26.40;76.50;;;;;;4995453;28;20041;-80
2022/08/01 12:53:16;;;;;;;3.83;3.05;;;26.40;76.10;;;;;;5000793;28;20033;-81
2022/08/01 12:55:46;;;;;;;3.80;3.40;;;26.40;75.80;;;;;;5006280;28;20061;-81
2022/08/01 12:58:14;;;;;;;4.20;3.03;;;26.40;76.30;;;;;;4998366;28;20027;-80